createdAt,value
2023-04-16T00:00:03.289Z,96.55
2023-04-16T00:02:31.036Z,95.32
2023-04-16T00:04:58.677Z,96.05
2023-04-16T00:07:26.332Z,96.19
2023-04-16T00:09:53.839Z,95.52
2023-04-16T00:12:21.577Z,95.87
2023-04-16T00:14:50.392Z,96.74
2023-04-16T00:17:17.886Z,95.95
2023-04-16T00:19:45.572Z,96.01
2023-04-16T00:22:13.099Z,95.84
2023-04-16T00:24:40.617Z,95.49
2023-04-16T00:27:08.086Z,95.69
2023-04-16T00:29:35.717Z,95.79
2023-04-16T00:32:04.499Z,95.95
2023-04-16T00:34:31.973Z,96.33
2023-04-16T00:36:59.458Z,95.91
2023-04-16T00:39:26.960Z,95.93
2023-04-16T00:41:54.551Z,96.26
2023-04-16T00:44:22.123Z,96.07
2023-04-16T00:46:49.774Z,96.09
2023-04-16T00:49:18.735Z,95.69
2023-04-16T00:51:46.235Z,96.04
2023-04-16T00:54:13.744Z,96.05
2023-04-16T00:56:41.484Z,96.47
2023-04-16T00:59:09.905Z,96.28
2023-04-16T01:01:37.810Z,95.84
2023-04-16T01:04:07.130Z,96.66
2023-04-16T01:06:36.240Z,96.43
2023-04-16T01:09:03.889Z,96.48
2023-04-16T01:11:31.365Z,96.25
2023-04-16T01:13:58.873Z,96.06
2023-04-16T01:16:26.702Z,96.34
2023-04-16T01:18:54.304Z,96.55
2023-04-16T01:21:23.091Z,95.71
2023-04-16T01:23:50.606Z,95.77
2023-04-16T01:26:18.085Z,95.84
2023-04-16T01:28:45.652Z,95.87
2023-04-16T01:31:13.156Z,95.93
2023-04-16T01:33:40.734Z,95.83
2023-04-16T01:36:08.501Z,96.63
2023-04-16T01:38:37.315Z,96.57
2023-04-16T01:41:04.852Z,95.63
2023-04-16T01:43:32.430Z,95.62
2023-04-16T01:46:12.614Z,95.63
2023-04-16T01:48:40.185Z,95.19
2023-04-16T01:51:09.195Z,95.38
2023-04-16T01:53:38.113Z,95.76
2023-04-16T01:56:06.878Z,96.30
2023-04-16T01:58:34.694Z,95.53
2023-04-16T02:01:02.305Z,96.12
2023-04-16T02:03:30.026Z,96.30
2023-04-16T02:05:57.711Z,96.41
2023-04-16T02:08:25.406Z,95.09
2023-04-16T02:10:54.710Z,95.76
2023-04-16T02:13:23.256Z,96.08
2023-04-16T02:15:51.641Z,96.31
2023-04-16T02:18:19.870Z,96.07
2023-04-16T02:20:49.500Z,96.16
2023-04-16T02:23:17.050Z,95.98
2023-04-16T02:25:46.318Z,95.82
2023-04-16T02:28:16.646Z,95.13
2023-04-16T02:30:44.520Z,95.60
2023-04-16T02:33:13.021Z,95.75
2023-04-16T02:35:41.046Z,95.36
2023-04-16T02:38:08.885Z,95.90
2023-04-16T02:40:36.650Z,95.78
2023-04-16T02:43:04.409Z,96.20
2023-04-16T02:45:33.297Z,95.55
2023-04-16T02:48:01.632Z,95.65
2023-04-16T02:50:29.163Z,94.47
2023-04-16T02:52:56.754Z,95.66
2023-04-16T02:55:24.248Z,95.28
2023-04-16T02:57:52.771Z,96.10
2023-04-16T03:00:20.787Z,96.07
2023-04-16T03:02:49.827Z,96.27
2023-04-16T03:05:17.669Z,95.87
2023-04-16T03:07:45.403Z,94.96
2023-04-16T03:10:13.864Z,95.36
2023-04-16T03:12:41.470Z,95.54
2023-04-16T03:15:09.947Z,96.09
2023-04-16T03:17:37.571Z,95.27
2023-04-16T03:20:08.300Z,94.78
2023-04-16T03:22:35.920Z,95.34
2023-04-16T03:25:03.541Z,95.78
2023-04-16T03:27:31.137Z,95.54
2023-04-16T03:29:58.723Z,95.69
2023-04-16T03:32:26.758Z,95.82
2023-04-16T03:34:54.363Z,95.21
2023-04-16T03:37:23.202Z,95.46
2023-04-16T03:39:50.690Z,94.81
2023-04-16T03:42:18.191Z,94.85
2023-04-16T03:44:45.924Z,94.71
2023-04-16T03:47:13.433Z,94.50
2023-04-16T03:49:40.940Z,94.76
2023-04-16T03:52:08.438Z,95.53
2023-04-16T03:54:37.245Z,95.95
2023-04-16T03:57:05.143Z,95.35
2023-04-16T03:59:32.622Z,96.00
2023-04-16T04:02:00.338Z,95.58
2023-04-16T04:04:28.010Z,95.12
2023-04-16T04:06:55.654Z,95.10
2023-04-16T04:09:23.120Z,95.86
2023-04-16T04:11:51.969Z,95.66
2023-04-16T04:14:19.450Z,95.76
2023-04-16T04:16:46.979Z,95.04
2023-04-16T04:19:14.528Z,94.78
2023-04-16T04:21:42.065Z,94.39
2023-04-16T04:24:09.661Z,95.85
2023-04-16T04:26:37.250Z,96.52
2023-04-16T04:29:06.200Z,95.75
2023-04-16T04:31:33.745Z,95.93
2023-04-16T04:34:01.362Z,95.82
2023-04-16T04:36:28.961Z,95.04
2023-04-16T04:38:56.479Z,95.66
2023-04-16T04:41:23.998Z,96.70
2023-04-16T04:43:51.884Z,96.33
2023-04-16T04:46:20.874Z,95.63
2023-04-16T04:48:48.501Z,95.51
2023-04-16T04:51:15.979Z,95.94
2023-04-16T04:53:43.470Z,95.52
2023-04-16T04:56:12.889Z,94.59
2023-04-16T04:58:41.304Z,94.18
2023-04-16T05:01:08.882Z,94.29
2023-04-16T05:03:38.080Z,94.51
2023-04-16T05:06:06.107Z,95.07
2023-04-16T05:08:33.671Z,95.46
2023-04-16T05:11:01.487Z,95.22
2023-04-16T05:13:28.984Z,94.80
2023-04-16T05:15:56.484Z,95.42
2023-04-16T05:18:24.024Z,96.08
2023-04-16T05:20:52.847Z,94.99
2023-04-16T05:23:20.411Z,94.35
2023-04-16T05:25:47.913Z,94.89
2023-04-16T05:28:15.393Z,95.77
2023-04-16T05:30:42.922Z,94.95
2023-04-16T05:33:10.451Z,95.31
2023-04-16T05:35:39.998Z,94.91
2023-04-16T05:38:08.801Z,94.91
2023-04-16T05:40:36.332Z,95.45
2023-04-16T05:43:03.896Z,94.95
2023-04-16T05:45:33.354Z,93.84
2023-04-16T05:48:00.850Z,94.37
2023-04-16T05:50:28.380Z,93.74
2023-04-16T05:52:55.866Z,94.28
2023-04-16T05:55:24.670Z,94.55
2023-04-16T05:57:52.184Z,94.97
2023-04-16T06:00:19.772Z,95.27
2023-04-16T06:02:47.337Z,95.64
2023-04-16T06:05:15.084Z,94.67
2023-04-16T06:07:42.634Z,95.25
2023-04-16T06:10:11.114Z,95.82
2023-04-16T06:12:40.023Z,95.91
2023-04-16T06:15:08.797Z,95.15
2023-04-16T06:17:36.305Z,94.72
2023-04-16T06:20:04.799Z,95.95
2023-04-16T06:22:32.408Z,95.75
2023-04-16T06:24:59.891Z,95.65
2023-04-16T06:27:27.564Z,95.55
2023-04-16T06:29:57.949Z,94.54
2023-04-16T06:32:25.955Z,95.17
2023-04-16T06:34:53.473Z,95.28
2023-04-16T06:37:20.944Z,95.29
2023-04-16T06:39:48.442Z,95.07
2023-04-16T06:42:16.123Z,95.76
2023-04-16T06:44:43.639Z,95.17
2023-04-16T06:47:12.570Z,94.90
2023-04-16T06:49:40.374Z,94.06
2023-04-16T06:52:07.977Z,94.66
2023-04-16T06:54:35.500Z,94.22
2023-04-16T06:57:03.010Z,94.40
2023-04-16T06:59:30.523Z,94.35
2023-04-16T07:01:58.258Z,94.18
2023-04-16T07:04:27.201Z,94.74
2023-04-16T07:06:54.697Z,94.16
2023-04-16T07:09:22.309Z,94.36
2023-04-16T07:11:49.869Z,93.88
2023-04-16T07:14:17.416Z,94.28
2023-04-16T07:16:44.919Z,93.78
2023-04-16T07:19:12.491Z,94.05
2023-04-16T07:21:43.541Z,93.68
2023-04-16T07:24:11.311Z,93.81
2023-04-16T07:26:38.826Z,93.43
2023-04-16T07:29:06.370Z,94.07
2023-04-16T07:31:33.894Z,93.75
2023-04-16T07:34:01.408Z,94.20
2023-04-16T07:36:29.217Z,94.56
2023-04-16T07:38:58.037Z,94.72
2023-04-16T07:41:25.884Z,94.14
2023-04-16T07:43:53.384Z,93.85
2023-04-16T07:46:21.147Z,93.30
2023-04-16T07:48:48.729Z,93.37
2023-04-16T07:51:16.289Z,93.12
2023-04-16T07:53:43.787Z,93.50
2023-04-16T07:56:12.666Z,93.50
2023-04-16T07:58:40.279Z,94.64
2023-04-16T08:01:07.786Z,94.85
2023-04-16T08:03:35.496Z,95.44
2023-04-16T08:06:03.365Z,94.50
2023-04-16T08:08:30.840Z,94.77
2023-04-16T08:10:58.516Z,93.91
2023-04-16T08:13:27.347Z,93.27
2023-04-16T08:15:54.864Z,93.38
2023-04-16T08:18:22.380Z,93.67
2023-04-16T08:20:49.852Z,93.86
2023-04-16T08:23:17.359Z,93.13
2023-04-16T08:25:44.820Z,93.42
2023-04-16T08:28:12.331Z,94.32
2023-04-16T08:30:41.243Z,94.46
2023-04-16T08:33:09.140Z,93.28
2023-04-16T08:35:36.864Z,93.98
2023-04-16T08:38:04.734Z,93.87
2023-04-16T08:40:32.438Z,93.79
2023-04-16T08:43:01.008Z,93.10
2023-04-16T08:45:28.535Z,93.36
2023-04-16T08:47:57.722Z,93.62
2023-04-16T08:50:26.599Z,93.67
2023-04-16T08:52:57.507Z,93.89
2023-04-16T08:55:27.893Z,92.97
2023-04-16T08:57:59.183Z,90.92
2023-04-16T09:00:26.910Z,91.54
2023-04-16T09:02:54.988Z,91.54
2023-04-16T09:05:25.740Z,93.76
2023-04-16T09:07:54.172Z,93.76
2023-04-16T09:10:21.883Z,94.05
2023-04-16T09:12:49.424Z,93.91
2023-04-16T09:15:16.939Z,93.19
2023-04-16T09:17:44.511Z,93.33
2023-04-16T09:20:12.557Z,94.15
2023-04-16T09:22:41.495Z,93.68
2023-04-16T09:25:09.842Z,93.26
2023-04-16T09:27:37.947Z,93.64
2023-04-16T09:30:21.912Z,94.34
2023-04-16T09:32:49.976Z,94.33
2023-04-16T09:35:18.799Z,93.63
2023-04-16T09:37:57.614Z,94.09
2023-04-16T09:40:26.125Z,93.27
2023-04-16T09:42:56.066Z,93.35
2023-04-16T09:45:23.815Z,93.30
2023-04-16T09:47:51.522Z,93.94
2023-04-16T09:50:20.536Z,93.78
2023-04-16T09:52:51.409Z,93.48
2023-04-16T09:55:23.975Z,93.03
2023-04-16T09:57:59.847Z,92.52
2023-04-16T10:00:27.388Z,93.63
2023-04-16T10:03:04.901Z,93.91
2023-04-16T10:05:32.452Z,93.73
2023-04-16T10:08:02.580Z,92.73
2023-04-16T10:10:30.491Z,93.06
2023-04-16T10:12:58.507Z,93.04
2023-04-16T10:15:26.264Z,93.54
2023-04-16T10:17:55.141Z,93.38
2023-04-16T10:20:23.853Z,92.85
2023-04-16T10:22:51.440Z,93.01
2023-04-16T10:25:20.921Z,92.55
2023-04-16T10:27:48.999Z,93.10
2023-04-16T10:30:16.690Z,92.99
2023-04-16T10:32:44.812Z,92.61
2023-04-16T10:35:16.781Z,91.65
2023-04-16T10:37:46.094Z,91.78
2023-04-16T10:40:24.875Z,92.46
2023-04-16T10:42:58.117Z,93.47
2023-04-16T10:45:32.420Z,92.73
2023-04-16T10:48:00.057Z,92.81
2023-04-16T10:50:36.055Z,92.65
2023-04-16T10:53:24.021Z,92.74
2023-04-16T10:56:00.458Z,92.16
2023-04-16T10:58:28.573Z,92.07
2023-04-16T11:00:56.074Z,91.82
2023-04-16T11:03:23.703Z,91.36
2023-04-16T11:05:51.269Z,91.90
2023-04-16T11:08:18.761Z,91.99
2023-04-16T11:10:46.296Z,90.97
2023-04-16T11:13:15.294Z,91.98
2023-04-16T11:15:42.815Z,91.63
2023-04-16T11:18:10.750Z,91.83
2023-04-16T11:20:42.544Z,91.30
2023-04-16T11:23:13.083Z,91.10
2023-04-16T11:25:40.686Z,90.14
2023-04-16T11:28:08.190Z,90.99
2023-04-16T11:30:38.606Z,89.88
2023-04-16T11:33:06.722Z,90.90
2023-04-16T11:35:34.390Z,91.72
2023-04-16T11:38:02.264Z,91.76
2023-04-16T11:40:30.851Z,90.84
2023-04-16T11:43:02.758Z,91.25
2023-04-16T11:45:30.509Z,90.96
2023-04-16T11:47:59.392Z,91.45
2023-04-16T11:50:27.730Z,90.40
2023-04-16T11:52:57.081Z,90.66
2023-04-16T11:55:25.057Z,90.24
2023-04-16T11:57:52.579Z,90.36
2023-04-16T12:00:21.607Z,90.25
2023-04-16T12:02:53.331Z,90.04
2023-04-16T12:05:30.839Z,89.71
2023-04-16T12:07:59.019Z,89.49
2023-04-16T12:10:27.404Z,89.98
2023-04-16T12:12:55.005Z,89.94
2023-04-16T12:15:22.511Z,89.21
2023-04-16T12:17:50.559Z,88.86
2023-04-16T12:20:18.116Z,89.27
2023-04-16T12:22:49.450Z,89.65
2023-04-16T12:25:18.777Z,89.06
2023-04-16T12:27:48.616Z,88.74
2023-04-16T12:30:18.399Z,89.11
2023-04-16T12:32:47.543Z,88.57
2023-04-16T12:35:15.643Z,87.74
2023-04-16T12:37:43.159Z,89.69
2023-04-16T12:40:12.554Z,89.22
2023-04-16T12:42:40.243Z,88.96
2023-04-16T12:45:08.416Z,89.16
2023-04-16T12:47:36.025Z,88.55
2023-04-16T12:50:03.653Z,89.40
2023-04-16T12:52:31.194Z,89.52
2023-04-16T12:54:58.706Z,89.52
2023-04-16T12:57:28.726Z,89.44
2023-04-16T12:59:56.965Z,88.64
2023-04-16T13:02:24.778Z,89.97
2023-04-16T13:04:52.649Z,89.62
2023-04-16T13:07:20.385Z,88.88
2023-04-16T13:09:48.243Z,88.56
2023-04-16T13:12:15.735Z,89.07
2023-04-16T13:14:45.200Z,88.93
2023-04-16T13:17:12.759Z,88.60
2023-04-16T13:19:40.292Z,88.18
2023-04-16T13:22:07.793Z,88.71
2023-04-16T13:24:35.435Z,88.53
2023-04-16T13:27:03.134Z,88.01
2023-04-16T13:29:30.914Z,87.89
2023-04-16T13:31:59.753Z,85.35
2023-04-16T13:34:27.421Z,87.71
2023-04-16T13:36:54.897Z,87.72
2023-04-16T13:39:22.419Z,87.47
2023-04-16T13:41:51.291Z,88.05
2023-04-16T13:44:18.827Z,87.09
2023-04-16T13:46:47.719Z,87.69
2023-04-16T13:49:16.933Z,89.10
2023-04-16T13:51:45.036Z,89.29
2023-04-16T13:54:12.580Z,89.83
2023-04-16T13:56:40.911Z,88.63
2023-04-16T13:59:08.777Z,88.79
2023-04-16T14:01:36.582Z,89.22
2023-04-16T14:04:06.382Z,88.86
2023-04-16T14:06:35.905Z,89.16
2023-04-16T14:09:04.530Z,88.51
2023-04-16T14:11:32.236Z,89.46
2023-04-16T14:13:59.782Z,89.25
2023-04-16T14:16:27.531Z,88.39
2023-04-16T14:18:55.332Z,88.39
2023-04-16T14:21:22.992Z,88.69
2023-04-16T14:23:51.907Z,89.22
2023-04-16T14:26:19.459Z,87.35
2023-04-16T14:28:46.952Z,89.27
2023-04-16T14:31:14.518Z,88.75
2023-04-16T14:33:42.130Z,89.32
2023-04-16T14:36:09.922Z,89.35
2023-04-16T14:38:37.429Z,89.15
2023-04-16T14:41:06.395Z,87.77
2023-04-16T14:43:34.277Z,87.80
2023-04-16T14:46:03.449Z,88.46
2023-04-16T14:48:31.075Z,88.55
2023-04-16T14:50:58.607Z,89.51
2023-04-16T14:53:26.113Z,89.49
2023-04-16T14:55:53.770Z,89.37
2023-04-16T14:58:22.879Z,90.00
2023-04-16T15:00:50.506Z,91.25
2023-04-16T15:03:18.285Z,90.79
2023-04-16T15:05:47.489Z,90.25
2023-04-16T15:08:16.098Z,90.26
2023-04-16T15:10:45.751Z,90.02
2023-04-16T15:13:13.395Z,89.97
2023-04-16T15:15:42.222Z,91.48
2023-04-16T15:18:09.851Z,90.96
2023-04-16T15:20:37.361Z,90.74
2023-04-16T15:23:05.142Z,90.86
2023-04-16T15:25:32.614Z,90.79
2023-04-16T15:28:02.459Z,90.36
2023-04-16T15:30:29.999Z,90.86
2023-04-16T15:32:58.878Z,90.54
2023-04-16T15:35:26.419Z,90.02
2023-04-16T15:37:55.398Z,89.99
2023-04-16T15:40:22.920Z,90.69
2023-04-16T15:42:50.429Z,90.29
2023-04-16T15:45:17.933Z,90.71
2023-04-16T15:47:47.970Z,90.76
2023-04-16T15:50:17.019Z,90.20
2023-04-16T15:52:44.547Z,90.65
2023-04-16T15:55:12.173Z,90.72
2023-04-16T15:57:39.809Z,89.70
2023-04-16T16:00:13.510Z,90.18
2023-04-16T16:02:41.779Z,89.82
2023-04-16T16:05:10.771Z,89.43
2023-04-16T16:07:39.715Z,89.18
2023-04-16T16:10:08.645Z,89.30
2023-04-16T16:12:36.488Z,89.28
2023-04-16T16:15:04.689Z,89.76
2023-04-16T16:17:32.272Z,89.94
2023-04-16T16:20:00.241Z,88.59
2023-04-16T16:22:27.768Z,89.17
2023-04-16T16:24:57.610Z,89.07
2023-04-16T16:27:25.123Z,90.06
2023-04-16T16:29:52.628Z,89.61
2023-04-16T16:32:20.128Z,89.71
2023-04-16T16:34:47.667Z,89.03
2023-04-16T16:37:15.436Z,90.01
2023-04-16T16:39:42.929Z,89.78
2023-04-16T16:42:11.927Z,89.59
2023-04-16T16:44:39.522Z,89.91
2023-04-16T16:47:07.063Z,90.10
2023-04-16T16:49:34.597Z,90.65
2023-04-16T16:52:02.153Z,90.45
2023-04-16T16:54:29.677Z,91.13
2023-04-16T16:56:57.157Z,90.94
2023-04-16T16:59:26.239Z,91.26
2023-04-16T17:01:53.771Z,90.68
2023-04-16T17:04:21.435Z,90.68
2023-04-16T17:06:49.221Z,90.78
2023-04-16T17:09:16.782Z,90.26
2023-04-16T17:11:44.294Z,89.45
2023-04-16T17:14:13.933Z,89.69
2023-04-16T17:16:42.850Z,88.87
2023-04-16T17:19:12.359Z,89.67
2023-04-16T17:21:39.948Z,89.05
2023-04-16T17:24:08.071Z,89.40
2023-04-16T17:26:35.566Z,89.66
2023-04-16T17:29:04.415Z,89.90
2023-04-16T17:31:32.030Z,89.77
2023-04-16T17:34:00.946Z,90.28
2023-04-16T17:36:28.426Z,89.56
2023-04-16T17:38:56.026Z,89.06
2023-04-16T17:41:23.509Z,88.54
2023-04-16T17:43:51.309Z,90.61
2023-04-16T17:46:18.859Z,90.57
2023-04-16T17:48:47.904Z,89.25
2023-04-16T17:51:16.983Z,90.00
2023-04-16T17:53:44.724Z,89.72
2023-04-16T17:56:12.401Z,91.42
2023-04-16T17:58:39.907Z,90.42
2023-04-16T18:01:07.450Z,89.98
2023-04-16T18:03:35.160Z,90.83
2023-04-16T18:06:02.710Z,90.68
2023-04-16T18:08:32.710Z,89.85
2023-04-16T18:11:00.179Z,90.44
2023-04-16T18:13:27.665Z,90.38
2023-04-16T18:15:55.535Z,90.01
2023-04-16T18:18:23.134Z,89.35
2023-04-16T18:20:50.622Z,90.71
2023-04-16T18:23:18.166Z,90.08
2023-04-16T18:25:48.817Z,90.60
2023-04-16T18:28:17.552Z,90.66
2023-04-16T18:30:45.309Z,90.76
2023-04-16T18:33:42.807Z,89.58
2023-04-16T18:36:01.525Z,90.26
2023-04-16T18:38:30.355Z,90.06
2023-04-16T18:40:59.247Z,90.17
2023-04-16T18:43:26.940Z,89.53
2023-04-16T18:45:54.428Z,89.70
2023-04-16T18:48:21.961Z,89.88
2023-04-16T18:50:49.467Z,89.98
2023-04-16T18:53:17.201Z,89.55
2023-04-16T18:55:44.714Z,89.11
2023-04-16T18:58:13.532Z,89.86
2023-04-16T19:00:41.127Z,88.82
2023-04-16T19:03:09.604Z,89.27
2023-04-16T19:05:37.129Z,89.14
2023-04-16T19:08:04.775Z,89.24
2023-04-16T19:10:32.339Z,89.87
2023-04-16T19:12:59.848Z,88.49
2023-04-16T19:15:31.577Z,89.20
2023-04-16T19:18:00.015Z,89.97
2023-04-16T19:20:27.683Z,89.74
2023-04-16T19:22:55.367Z,89.94
2023-04-16T19:25:22.933Z,90.35
2023-04-16T19:27:51.134Z,91.68
2023-04-16T19:30:19.070Z,92.33
2023-04-16T19:32:47.987Z,92.17
2023-04-16T19:35:15.621Z,90.82
2023-04-16T19:37:43.503Z,90.56
2023-04-16T19:40:11.675Z,90.00
2023-04-16T19:42:39.940Z,89.99
2023-04-16T19:45:08.612Z,89.56
2023-04-16T19:47:36.152Z,89.81
2023-04-16T19:50:05.427Z,90.59
2023-04-16T19:52:37.311Z,89.81
2023-04-16T19:55:05.385Z,89.21
2023-04-16T19:57:33.050Z,90.40
2023-04-16T20:00:00.782Z,89.17
2023-04-16T20:02:28.420Z,89.63
2023-04-16T20:04:55.950Z,89.88
2023-04-16T20:07:24.775Z,89.01
2023-04-16T20:09:53.336Z,89.13
2023-04-16T20:12:20.995Z,88.81
2023-04-16T20:14:48.522Z,88.67
2023-04-16T20:17:18.594Z,88.88
2023-04-16T20:19:49.383Z,89.32
2023-04-16T20:22:18.620Z,89.46
2023-04-16T20:24:48.193Z,89.75
2023-04-16T20:27:16.812Z,89.86
2023-04-16T20:29:44.315Z,91.04
2023-04-16T20:32:11.800Z,92.15
2023-04-16T20:34:40.518Z,91.90
2023-04-16T20:37:08.068Z,92.97
2023-04-16T20:39:37.178Z,91.31
2023-04-16T20:42:10.369Z,90.53
2023-04-16T20:44:41.325Z,92.28
2023-04-16T20:47:09.256Z,90.48
2023-04-16T20:49:38.446Z,90.59
2023-04-16T20:52:07.272Z,89.72
2023-04-16T20:54:35.047Z,90.44
2023-04-16T20:57:04.785Z,90.74
2023-04-16T20:59:33.911Z,90.44
2023-04-16T21:02:01.647Z,90.63
2023-04-16T21:04:29.304Z,90.24
2023-04-16T21:06:56.850Z,89.87
2023-04-16T21:09:24.697Z,89.38
2023-04-16T21:11:52.438Z,89.47
2023-04-16T21:14:19.941Z,89.75
2023-04-16T21:16:48.781Z,90.47
2023-04-16T21:19:16.289Z,88.89
2023-04-16T21:21:43.808Z,90.27
2023-04-16T21:24:11.366Z,91.61
2023-04-16T21:26:38.862Z,91.76
2023-04-16T21:29:06.379Z,91.49
2023-04-16T21:31:33.921Z,90.93
2023-04-16T21:34:02.790Z,91.20
2023-04-16T21:36:32.071Z,90.91
2023-04-16T21:38:59.587Z,90.56
2023-04-16T21:41:27.153Z,91.02
2023-04-16T21:43:54.714Z,90.58
2023-04-16T21:46:22.572Z,90.30
2023-04-16T21:48:50.788Z,90.74
2023-04-16T21:51:20.097Z,91.34
2023-04-16T21:53:47.602Z,91.57
2023-04-16T21:56:15.173Z,91.81
2023-04-16T21:58:42.688Z,91.68
2023-04-16T22:01:11.050Z,90.69
2023-04-16T22:03:40.349Z,91.24
2023-04-16T22:06:08.730Z,91.50
2023-04-16T22:08:37.904Z,90.64
2023-04-16T22:11:05.588Z,90.38
2023-04-16T22:13:33.182Z,90.97
2023-04-16T22:16:02.319Z,91.54
2023-04-16T22:18:32.866Z,90.93
2023-04-16T22:21:00.799Z,90.79
2023-04-16T22:23:28.409Z,91.51
2023-04-16T22:25:57.648Z,89.91
2023-04-16T22:28:25.325Z,89.94
2023-04-16T22:30:52.833Z,90.80
2023-04-16T22:33:20.362Z,90.69
2023-04-16T22:35:48.001Z,89.75
2023-04-16T22:38:16.489Z,89.06
2023-04-16T22:40:44.158Z,88.55
2023-04-16T22:43:12.986Z,88.54
2023-04-16T22:45:41.106Z,88.48
2023-04-16T22:48:08.691Z,88.23
2023-04-16T22:50:36.220Z,88.14
2023-04-16T22:53:03.790Z,88.50
2023-04-16T22:55:31.276Z,87.96
2023-04-16T22:57:58.834Z,87.98
2023-04-16T23:00:28.446Z,87.77
2023-04-16T23:02:56.038Z,87.39
2023-04-16T23:05:23.597Z,89.25
2023-04-16T23:07:51.137Z,88.91
2023-04-16T23:10:18.620Z,89.23
2023-04-16T23:12:46.153Z,88.10
2023-04-16T23:15:14.439Z,88.47
2023-04-16T23:17:43.396Z,87.75
2023-04-16T23:20:12.165Z,87.26
2023-04-16T23:22:39.693Z,88.36
2023-04-16T23:25:08.812Z,87.47
2023-04-16T23:27:36.390Z,87.30
2023-04-16T23:30:04.564Z,87.37
2023-04-16T23:32:33.969Z,87.21
2023-04-16T23:35:02.967Z,87.34
2023-04-16T23:37:30.520Z,86.37
2023-04-16T23:39:58.057Z,86.47
2023-04-16T23:42:25.559Z,86.18
2023-04-16T23:44:53.129Z,87.36
2023-04-16T23:47:20.684Z,87.75
2023-04-16T23:49:48.200Z,87.21
2023-04-16T23:52:17.019Z,87.76
2023-04-16T23:54:44.503Z,87.16
2023-04-16T23:57:12.011Z,87.25
2023-04-16T23:59:39.615Z,88.22
